createdAt,value
2022-10-09T00:01:31.395Z,1.40
2022-10-09T00:04:52.008Z,1.40
2022-10-09T00:08:30.005Z,1.50
2022-10-09T00:12:08.046Z,1.60
2022-10-09T00:15:45.923Z,1.40
2022-10-09T00:19:22.401Z,1.90
2022-10-09T00:23:18.953Z,1.30
2022-10-09T00:26:39.377Z,2.10
2022-10-09T00:30:17.170Z,1.30
2022-10-09T00:34:13.454Z,1.70
2022-10-09T00:37:52.650Z,1.50
2022-10-09T00:41:17.316Z,1.40
2022-10-09T00:45:18.909Z,1.50
2022-10-09T00:48:39.463Z,1.40
2022-10-09T00:52:17.764Z,1.70
2022-10-09T00:56:14.003Z,2.00
2022-10-09T00:59:36.616Z,1.50
2022-10-09T01:03:12.487Z,1.70
2022-10-09T01:06:53.041Z,1.70
2022-10-09T01:10:35.734Z,1.20
2022-10-09T01:14:18.691Z,1.80
2022-10-09T01:18:05.829Z,1.70
2022-10-09T01:22:04.720Z,1.90
2022-10-09T01:25:57.330Z,1.70
2022-10-09T01:29:21.574Z,1.90
2022-10-09T01:32:58.386Z,1.80
2022-10-09T01:36:55.933Z,2.10
2022-10-09T01:40:17.744Z,2.10
2022-10-09T01:44:28.610Z,1.30
2022-10-09T01:47:49.517Z,2.10
2022-10-09T01:51:35.026Z,2.40
2022-10-09T01:55:42.084Z,2.00
2022-10-09T01:59:14.834Z,2.00
2022-10-09T02:02:45.897Z,2.20
2022-10-09T02:06:19.842Z,1.90
2022-10-09T02:09:56.873Z,2.20
2022-10-09T02:13:35.459Z,2.30
2022-10-09T02:17:18.895Z,2.50
2022-10-09T02:20:55.641Z,2.30
2022-10-09T02:24:46.198Z,2.40
2022-10-09T02:28:25.876Z,2.10
2022-10-09T02:31:47.404Z,2.60
2022-10-09T02:35:24.318Z,2.00
2022-10-09T02:39:03.515Z,1.80
2022-10-09T02:42:39.629Z,2.50
2022-10-09T02:46:17.964Z,2.10
2022-10-09T02:50:14.001Z,2.00
2022-10-09T02:53:55.017Z,2.00
2022-10-09T02:57:15.877Z,2.10
2022-10-09T03:00:53.961Z,2.00
2022-10-09T03:04:31.205Z,2.10
2022-10-09T03:08:08.784Z,2.00
2022-10-09T03:11:46.526Z,2.20
2022-10-09T03:15:24.186Z,2.30
2022-10-09T03:19:01.883Z,2.40
2022-10-09T03:22:39.553Z,2.40
2022-10-09T03:26:36.040Z,2.30
2022-10-09T03:29:58.591Z,2.40
2022-10-09T03:33:53.284Z,1.90
2022-10-09T03:37:14.295Z,1.90
2022-10-09T03:40:52.396Z,3.30
2022-10-09T03:44:29.623Z,2.00
2022-10-09T03:48:09.707Z,2.50
2022-10-09T03:52:04.157Z,1.90
2022-10-09T03:55:43.889Z,1.90
2022-10-09T03:59:07.468Z,1.90
2022-10-09T04:03:02.359Z,2.00
2022-10-09T04:06:42.229Z,1.40
2022-10-09T04:10:21.761Z,1.50
2022-10-09T04:14:02.561Z,1.40
2022-10-09T04:17:42.217Z,1.80
2022-10-09T04:21:02.827Z,2.00
2022-10-09T04:24:40.464Z,2.10
2022-10-09T04:28:37.574Z,3.10
2022-10-09T04:31:58.994Z,2.40
2022-10-09T04:35:36.426Z,2.70
2022-10-09T04:39:13.969Z,2.30
2022-10-09T04:43:10.542Z,2.80
2022-10-09T04:46:31.214Z,2.50
2022-10-09T04:50:09.309Z,2.80
2022-10-09T04:53:46.677Z,2.70
2022-10-09T04:57:24.193Z,3.10
2022-10-09T05:01:06.649Z,3.40
2022-10-09T05:04:39.633Z,3.20
2022-10-09T05:08:17.257Z,3.00
2022-10-09T05:12:13.787Z,3.10
2022-10-09T05:15:37.917Z,3.00
2022-10-09T05:19:32.064Z,2.70
2022-10-09T05:22:53.138Z,4.50
2022-10-09T05:26:30.662Z,3.90
2022-10-09T05:30:09.385Z,3.10
2022-10-09T05:33:46.748Z,2.90
2022-10-09T05:37:23.844Z,2.90
2022-10-09T05:41:04.972Z,3.10
2022-10-09T05:44:39.590Z,3.30
2022-10-09T05:48:16.704Z,3.70
2022-10-09T05:51:56.082Z,2.50
2022-10-09T05:55:32.186Z,3.90
2022-10-09T05:59:15.676Z,2.70
2022-10-09T06:02:47.717Z,2.50
2022-10-09T06:06:28.226Z,3.20
2022-10-09T06:10:03.671Z,3.10
2022-10-09T06:13:41.441Z,2.80
2022-10-09T06:17:18.263Z,2.60
2022-10-09T06:20:58.309Z,3.90
2022-10-09T06:24:33.697Z,2.80
2022-10-09T06:28:11.846Z,3.50
2022-10-09T06:32:07.822Z,2.90
2022-10-09T06:35:28.763Z,2.70
2022-10-09T06:39:10.672Z,2.70
2022-10-09T06:42:45.485Z,2.90
2022-10-09T06:46:24.729Z,2.30
2022-10-09T06:49:59.477Z,2.80
2022-10-09T06:53:58.513Z,3.20
2022-10-09T06:57:38.502Z,2.50
2022-10-09T07:01:03.711Z,3.00
2022-10-09T07:04:36.917Z,3.20
2022-10-09T07:08:33.357Z,3.00
2022-10-09T07:11:53.982Z,2.90
2022-10-09T07:15:50.707Z,2.60
2022-10-09T07:19:17.650Z,2.70
2022-10-09T07:22:50.102Z,3.50
2022-10-09T07:26:49.121Z,3.10
2022-10-09T07:30:10.138Z,2.90
2022-10-09T07:33:48.654Z,3.10
2022-10-09T07:37:25.119Z,3.00
2022-10-09T07:41:09.690Z,2.60
2022-10-09T07:44:40.387Z,2.30
2022-10-09T07:48:18.160Z,2.50
2022-10-09T07:52:15.109Z,2.80
2022-10-09T07:55:55.066Z,2.70
2022-10-09T07:59:17.134Z,2.10
2022-10-09T08:02:53.772Z,2.10
2022-10-09T08:06:49.854Z,2.00
2022-10-09T08:10:32.642Z,1.60
2022-10-09T08:13:53.821Z,2.30
2022-10-09T08:17:31.028Z,2.10
2022-10-09T08:21:11.776Z,2.50
2022-10-09T08:25:05.789Z,1.90
2022-10-09T08:29:00.542Z,1.80
2022-10-09T08:32:21.008Z,1.50
2022-10-09T08:36:07.796Z,1.20
2022-10-09T08:39:36.361Z,1.40
2022-10-09T08:43:19.114Z,1.20
2022-10-09T08:47:07.258Z,1.40
2022-10-09T08:50:34.982Z,1.20
2022-10-09T08:54:20.129Z,1.30
2022-10-09T08:57:47.131Z,1.30
2022-10-09T09:01:32.293Z,1.30
2022-10-09T09:05:27.247Z,1.30
2022-10-09T09:09:01.298Z,1.60
2022-10-09T09:12:34.339Z,1.60
2022-10-09T09:16:07.123Z,1.20
2022-10-09T09:20:09.719Z,1.60
2022-10-09T09:23:50.886Z,1.50
2022-10-09T09:27:33.623Z,1.50
2022-10-09T09:30:58.703Z,0.90
2022-10-09T09:34:41.148Z,1.50
2022-10-09T09:38:28.650Z,1.20
2022-10-09T09:41:54.476Z,0.80
2022-10-09T09:45:28.751Z,0.80
2022-10-09T09:49:28.578Z,1.00
2022-10-09T09:52:49.394Z,1.20
2022-10-09T09:57:07.020Z,1.10
2022-10-09T10:00:23.364Z,1.10
2022-10-09T10:04:02.009Z,1.10
2022-10-09T10:07:39.008Z,1.40
2022-10-09T10:11:35.187Z,1.20
2022-10-09T10:14:55.901Z,1.10
2022-10-09T10:18:54.422Z,1.20
2022-10-09T10:22:25.903Z,0.90
2022-10-09T10:25:59.200Z,0.90
2022-10-09T10:30:04.731Z,1.30
2022-10-09T10:33:29.856Z,1.00
2022-10-09T10:37:15.510Z,0.90
2022-10-09T10:41:21.714Z,1.00
2022-10-09T10:45:04.176Z,1.00
2022-10-09T10:48:29.037Z,0.90
2022-10-09T10:52:27.457Z,1.20
2022-10-09T10:56:00.223Z,0.80
2022-10-09T11:00:07.812Z,0.70
2022-10-09T11:03:28.305Z,0.70
2022-10-09T11:07:25.455Z,1.10
2022-10-09T11:11:12.728Z,1.00
2022-10-09T11:14:48.178Z,0.80
2022-10-09T11:18:24.133Z,1.10
2022-10-09T11:22:30.942Z,1.10
2022-10-09T11:26:13.330Z,1.20
2022-10-09T11:30:01.308Z,0.90
2022-10-09T11:33:33.858Z,1.10
2022-10-09T11:37:07.145Z,0.90
2022-10-09T11:40:42.286Z,0.90
2022-10-09T11:44:46.297Z,0.80
2022-10-09T11:48:33.237Z,0.70
2022-10-09T11:52:43.126Z,0.70
2022-10-09T11:56:29.092Z,0.70
2022-10-09T11:59:49.917Z,0.60
2022-10-09T12:03:36.531Z,0.50
2022-10-09T12:07:09.441Z,0.50
2022-10-09T12:10:53.778Z,0.70
2022-10-09T12:14:27.654Z,0.80
2022-10-09T12:17:58.041Z,0.60
2022-10-09T12:21:43.199Z,0.80
2022-10-09T12:25:24.464Z,0.60
2022-10-09T12:28:55.113Z,0.60
2022-10-09T12:32:45.299Z,0.60
2022-10-09T12:36:23.965Z,0.60
2022-10-09T12:39:47.024Z,0.60
2022-10-09T12:43:46.364Z,0.90
2022-10-09T12:47:15.292Z,1.10
2022-10-09T12:50:45.889Z,1.30
2022-10-09T12:54:27.452Z,1.30
2022-10-09T12:58:05.258Z,0.70
2022-10-09T13:01:41.987Z,0.90
2022-10-09T13:05:16.987Z,0.70
2022-10-09T13:09:02.018Z,0.80
2022-10-09T13:12:32.924Z,0.60
2022-10-09T13:16:12.672Z,0.60
2022-10-09T13:19:53.336Z,0.80
2022-10-09T13:23:43.633Z,1.30
2022-10-09T13:27:05.305Z,1.50
2022-10-09T13:30:41.823Z,1.40
2022-10-09T13:34:23.848Z,1.60
2022-10-09T13:37:56.950Z,1.20
2022-10-09T13:41:55.450Z,1.30
2022-10-09T13:45:18.705Z,1.00
2022-10-09T13:48:53.664Z,1.50
2022-10-09T13:52:31.200Z,1.30
2022-10-09T13:56:09.747Z,1.30
2022-10-09T13:59:47.559Z,1.30
2022-10-09T14:03:24.548Z,0.90
2022-10-09T14:07:02.089Z,1.80
2022-10-09T14:10:44.032Z,1.30
2022-10-09T14:14:17.948Z,1.70
2022-10-09T14:18:14.359Z,2.50
2022-10-09T14:21:55.361Z,2.60
2022-10-09T14:25:16.499Z,1.70
2022-10-09T14:28:55.064Z,1.70
2022-10-09T14:32:31.553Z,1.80
2022-10-09T14:36:14.481Z,1.80
2022-10-09T14:39:48.841Z,1.70
2022-10-09T14:43:24.452Z,1.70
2022-10-09T14:47:02.230Z,2.00
2022-10-09T14:50:39.916Z,1.70
2022-10-09T14:54:17.561Z,1.10
2022-10-09T14:58:14.040Z,1.40
2022-10-09T15:01:38.488Z,1.80
2022-10-09T15:05:12.215Z,1.40
2022-10-09T15:09:03.121Z,1.20
2022-10-09T15:12:46.493Z,1.20
2022-10-09T15:16:14.473Z,1.20
2022-10-09T15:20:06.757Z,1.30
2022-10-09T15:23:47.222Z,1.50
2022-10-09T15:27:07.590Z,1.60
2022-10-09T15:30:53.917Z,1.60
2022-10-09T15:34:22.924Z,1.40
2022-10-09T15:38:22.544Z,2.10
2022-10-09T15:42:05.450Z,1.70
2022-10-09T15:45:26.055Z,1.50
2022-10-09T15:49:22.491Z,1.50
2022-10-09T15:52:42.995Z,2.00
2022-10-09T15:56:40.763Z,2.70
2022-10-09T16:00:04.349Z,4.40
2022-10-09T16:03:40.874Z,4.00
2022-10-09T16:07:17.952Z,2.50
2022-10-09T16:11:18.997Z,1.50
2022-10-09T16:14:49.876Z,1.70
2022-10-09T16:18:44.313Z,1.10
2022-10-09T16:22:05.934Z,1.30
2022-10-09T16:26:02.458Z,0.80
2022-10-09T16:29:23.195Z,1.40
2022-10-09T16:33:19.854Z,1.30
2022-10-09T16:36:40.504Z,1.60
2022-10-09T16:40:18.143Z,1.40
2022-10-09T16:43:57.877Z,1.50
2022-10-09T16:47:34.226Z,1.60
2022-10-09T16:51:14.210Z,2.10
2022-10-09T16:54:51.399Z,2.30
2022-10-09T16:58:26.855Z,2.80
2022-10-09T17:02:04.270Z,2.80
2022-10-09T17:05:41.998Z,2.30
2022-10-09T17:09:19.977Z,2.20
2022-10-09T17:13:18.840Z,1.80
2022-10-09T17:16:58.309Z,2.10
2022-10-09T17:20:18.818Z,1.70
2022-10-09T17:24:00.801Z,1.70
2022-10-09T17:27:34.173Z,1.50
2022-10-09T17:31:14.593Z,1.80
2022-10-09T17:34:51.246Z,1.80
2022-10-09T17:38:27.237Z,2.20
2022-10-09T17:42:07.048Z,2.60
2022-10-09T17:45:49.886Z,1.70
2022-10-09T17:49:20.299Z,1.80
2022-10-09T17:52:57.898Z,2.10
2022-10-09T17:56:35.740Z,2.10
2022-10-09T18:00:16.593Z,2.20
2022-10-09T18:03:52.258Z,5.10
2022-10-09T18:07:29.625Z,3.20
2022-10-09T18:11:10.262Z,2.60
2022-10-09T18:14:44.054Z,2.20
2022-10-09T18:18:22.231Z,2.30
2022-10-09T18:21:59.378Z,3.20
2022-10-09T18:25:43.293Z,7.00
2022-10-09T18:29:17.238Z,15.20
2022-10-09T18:32:52.702Z,9.10
2022-10-09T18:36:34.904Z,11.70
2022-10-09T18:40:08.493Z,13.90
2022-10-09T18:43:45.598Z,17.30
2022-10-09T18:47:26.346Z,26.30
2022-10-09T18:51:06.981Z,27.10
2022-10-09T18:54:40.014Z,36.00
2022-10-09T18:58:16.146Z,34.60
2022-10-09T19:01:53.750Z,24.30
2022-10-09T19:05:33.620Z,24.10
2022-10-09T19:09:09.279Z,24.40
2022-10-09T19:12:46.761Z,21.40
2022-10-09T19:16:24.694Z,20.70
2022-10-09T19:20:02.146Z,20.10
2022-10-09T19:23:40.196Z,23.40
2022-10-09T19:27:17.552Z,21.30
2022-10-09T19:31:00.062Z,19.00
2022-10-09T19:34:32.887Z,18.50
2022-10-09T19:38:10.498Z,15.30
2022-10-09T19:41:51.104Z,16.10
2022-10-09T19:45:48.431Z,16.10
2022-10-09T19:49:09.610Z,12.40
2022-10-09T19:53:09.021Z,15.40
2022-10-09T19:56:33.321Z,14.90
2022-10-09T20:00:09.070Z,14.90
2022-10-09T20:03:49.230Z,13.40
2022-10-09T20:07:23.502Z,13.90
2022-10-09T20:11:03.690Z,13.40
2022-10-09T20:14:38.891Z,12.20
2022-10-09T20:18:16.415Z,12.00
2022-10-09T20:21:58.123Z,9.20
2022-10-09T20:25:31.808Z,9.80
2022-10-09T20:29:09.486Z,8.90
2022-10-09T20:33:05.924Z,8.10
2022-10-09T20:36:39.250Z,6.90
2022-10-09T20:40:04.920Z,6.10
2022-10-09T20:44:02.487Z,6.10
2022-10-09T20:47:23.185Z,6.00
2022-10-09T20:51:20.777Z,3.60
2022-10-09T20:55:00.688Z,3.50
2022-10-09T20:58:21.453Z,3.50
2022-10-09T21:01:58.956Z,3.60
2022-10-09T21:05:45.142Z,5.50
2022-10-09T21:09:14.357Z,11.50
2022-10-09T21:12:52.224Z,6.50
2022-10-09T21:16:30.080Z,5.40
2022-10-09T21:20:12.693Z,4.50
2022-10-09T21:24:05.151Z,4.80
2022-10-09T21:27:44.673Z,4.60
2022-10-09T21:31:19.680Z,5.40
2022-10-09T21:34:42.694Z,6.50
2022-10-09T21:38:23.816Z,6.00
2022-10-09T21:41:58.356Z,7.80
2022-10-09T21:45:37.110Z,7.50
2022-10-09T21:49:23.440Z,7.90
2022-10-09T21:53:10.327Z,5.40
2022-10-09T21:56:31.157Z,4.40
2022-10-09T22:00:09.164Z,5.20
2022-10-09T22:03:46.459Z,5.00
2022-10-09T22:07:26.402Z,5.50
2022-10-09T22:11:04.567Z,6.10
2022-10-09T22:14:39.225Z,5.00
2022-10-09T22:18:16.994Z,4.70
2022-10-09T22:22:13.389Z,5.50
2022-10-09T22:25:34.352Z,6.00
2022-10-09T22:29:30.675Z,5.80
2022-10-09T22:32:55.080Z,8.10
2022-10-09T22:36:31.948Z,5.60
2022-10-09T22:40:07.116Z,5.20
2022-10-09T22:44:05.818Z,5.50
2022-10-09T22:47:26.308Z,6.60
2022-10-09T22:51:10.409Z,5.50
2022-10-09T22:54:41.783Z,5.50
2022-10-09T22:58:19.481Z,4.70
2022-10-09T23:01:58.369Z,4.80
2022-10-09T23:05:53.480Z,4.70
2022-10-09T23:09:15.617Z,5.20
2022-10-09T23:12:51.875Z,5.00
2022-10-09T23:16:31.288Z,4.70
2022-10-09T23:20:07.250Z,4.30
2022-10-09T23:23:48.829Z,4.40
2022-10-09T23:27:41.014Z,4.70
2022-10-09T23:31:10.118Z,4.20
2022-10-09T23:34:38.996Z,4.30
2022-10-09T23:38:16.577Z,4.50
2022-10-09T23:41:54.212Z,4.80
2022-10-09T23:45:51.425Z,4.40
2022-10-09T23:49:12.017Z,5.60
2022-10-09T23:52:50.058Z,4.40
2022-10-09T23:56:33.172Z,3.90
